Flight Track Log - Related Links

Times and Time Zones

All times are in EDT time to prevent confusion due to time zone crossing. See the N108RJ flight status page for this flight to view local times or setup timezone preferences in your user account.

Time Position Orientation Groundspeed Altitude Reporting Facility
EDT Latitude Longitude Course Direction KTS MPH feet Rate Location/Type
Thu 07:32:15 PM 40.7725 -115.9053 242° Southwest 152 175 9,300  Level Salt Lake Center
Thu 07:33:17 PM 40.7531 -115.9539 242° Southwest 155 178 11,200 1,645 Climbing Salt Lake Center
Thu 07:34:19 PM 40.7492 -116.0022 264° West 154 177 12,700 1,452 Climbing Salt Lake Center
Thu 07:35:21 PM 40.7831 -116.0517 312° West 161 185 14,200 1,403 Climbing Salt Lake Center
Thu 07:36:23 PM 40.8175 -116.0964 316° Northwest 171 197 15,600 1,610 Climbing Salt Lake Center
Thu 07:37:24 PM 40.8575 -116.1508 314° West 180 207 17,500 1,610 Climbing Salt Lake Center
Thu 07:38:26 PM 40.8906 -116.1947 315° West 180 207 18,900 1,258 Climbing Salt Lake Center
Thu 07:39:28 PM 40.9281 -116.2472 313° West 177 204 20,100 1,113 Climbing Salt Lake Center
Thu 07:40:30 PM 40.9636 -116.2956 314° West 182 209 21,200 1,210 Climbing Salt Lake Center
Thu 07:41:32 PM 41.0056 -116.3533 314° West 190 219 22,600 1,210 Climbing Salt Lake Center
Thu 07:42:34 PM 41.0411 -116.4014 314° West 191 220 23,700 677 Climbing Salt Lake Center
Thu 07:43:36 PM 41.0764 -116.4500 314° West 191 220 24,000 146 Climbing Salt Lake Center
Thu 07:44:37 PM 41.1236 -116.5150 314° West 203 234 24,000  Level Salt Lake Center
Thu 07:45:39 PM 41.1689 -116.5800 313° West 230 265 24,000  Level Salt Lake Center
Thu 07:46:41 PM 41.2225 -116.6542 314° West 245 282 24,000  Level Salt Lake Center
Thu 07:47:43 PM 41.2692 -116.7186 314° West 251 289 24,000  Level Salt Lake Center
Thu 07:48:45 PM 41.3233 -116.7950 313° West 254 292 24,000  Level Salt Lake Center
Thu 07:49:47 PM 41.3700 -116.8608 313° West 255 293 24,000  Level Salt Lake Center
Thu 07:50:49 PM 41.4236 -116.9372 313° West 255 293 24,000  Level Salt Lake Center
Thu 07:51:51 PM 41.4700 -117.0006 314° West 251 289 24,000  Level Salt Lake Center
Thu 07:52:53 PM 41.5236 -117.0758 314° West 249 287 24,000  Level Salt Lake Center
Thu 07:53:55 PM 41.5689 -117.1408 313° West 250 288 24,000  Level Salt Lake Center
Thu 07:54:57 PM 41.6211 -117.2144 314° West 246 283 24,000  Level Salt Lake Center
Thu 07:55:59 PM 41.6661 -117.2789 313° West 247 284 24,000  Level Salt Lake Center
Thu 07:57:01 PM 41.7106 -117.3417 313° West 245 282 24,000  Level Salt Lake Center
Thu 07:58:03 PM 41.7633 -117.4133 315° West 243 280 24,000  Level Salt Lake Center
Thu 07:59:04 PM 41.8069 -117.4778 312° West 243 280 24,000  Level Salt Lake Center
Thu 08:00:06 PM 41.8592 -117.5500 314° West 242 278 24,000  Level Salt Lake Center
Thu 08:01:08 PM 41.9022 -117.6133 312° West 240 276 24,000  Level Salt Lake Center
Thu 08:02:10 PM 41.9536 -117.6881 313° West 243 280 24,000  Level Salt Lake Center
Thu 08:03:12 PM 41.9969 -117.7528 312° West 244 281 24,000  Level Salt Lake Center
Thu 08:04:14 PM 42.0486 -117.8253 314° West 241 277 24,000  Level Salt Lake Center
Thu 08:05:16 PM 42.0919 -117.8881 313° West 239 275 24,000  Level Salt Lake Center
Thu 08:06:17 PM 42.1339 -117.9519 312° West 238 274 24,000  Level Salt Lake Center
Thu 08:07:19 PM 42.1842 -118.0239 313° West 237 273 24,000  Level Salt Lake Center
Thu 08:08:21 PM 42.2292 -118.0878 314° West 232 267 24,000  Level Salt Lake Center
Thu 08:09:23 PM 42.2753 -118.1572 312° West 235 270 24,000  Level Salt Lake Center
Thu 08:10:25 PM 42.3183 -118.2183 314° West 235 270 24,000  Level Salt Lake Center
Thu 08:11:27 PM 42.3678 -118.2919 312° West 235 270 24,000  Level Salt Lake Center
Thu 08:12:28 PM 42.4108 -118.3544 313° West 237 273 24,000  Level Salt Lake Center
Thu 08:13:30 PM 42.4556 -118.4200 313° West 234 269 24,000  Level Salt Lake Center
Thu 08:14:32 PM 42.5056 -118.4944 312° West 237 273 24,000  Level Salt Lake Center
Thu 08:15:34 PM 42.5497 -118.5581 313° West 240 276 24,000  Level Salt Lake Center
Thu 08:16:36 PM 42.5969 -118.6314 311° West 233 268 24,000  Level Salt Lake Center
Thu 08:17:38 PM 42.6394 -118.6939 313° West 234 269 24,000  Level Salt Lake Center
Thu 08:18:40 PM 42.6833 -118.7589 313° West 240 276 24,000  Level Salt Lake Center
Thu 08:19:41 PM 42.7328 -118.8331 312° West 237 273 24,000  Level Salt Lake Center
Thu 08:20:43 PM 42.7761 -118.8975 313° West 239 275 24,000  Level Salt Lake Center
Thu 08:21:45 PM 42.8269 -118.9728 313° West 241 277 24,000  Level Salt Lake Center
Thu 08:22:47 PM 42.8697 -119.0386 312° West 242 278 24,000  Level Salt Lake Center
Thu 08:23:49 PM 42.9206 -119.1136 313° West 241 277 24,000  Level Salt Lake Center
Thu 08:24:38 PM 42.9564 -119.1700 311° West 239 275 24,000  Level Seattle Center
Thu 08:25:39 PM 42.9978 -119.2331 312° West 235 270 24,000  Level Seattle Center
Thu 08:26:40 PM 43.0394 -119.2978 311° West 236 272 24,000  Level Seattle Center
Thu 08:27:41 PM 43.0867 -119.3669 313° West 238 274 24,000  Level Seattle Center
Thu 08:28:42 PM 43.1294 -119.4331 312° West 236 272 24,000  Level Seattle Center
Thu 08:29:43 PM 43.1731 -119.4992 312° West 234 269 24,000  Level Seattle Center
Thu 08:30:44 PM 43.2144 -119.5661 310° West 234 269 24,000  Level Seattle Center
Thu 08:31:45 PM 43.2578 -119.6317 312° West 233 268 24,000  Level Seattle Center
Thu 08:32:46 PM 43.3006 -119.6981 312° West 233 268 24,000  Level Seattle Center
Thu 08:33:47 PM 43.3531 -119.7792 312° West 236 272 24,000  Level Seattle Center
Thu 08:34:47 PM 43.3978 -119.8464 312° West 238 274 24,000  Level Seattle Center
Thu 08:35:48 PM 43.4408 -119.9147 311° West 237 273 24,000  Level Seattle Center
Thu 08:36:49 PM 43.4842 -119.9825 311° West 237 273 24,000  Level Seattle Center
Thu 08:37:50 PM 43.5281 -120.0514 311° West 239 275 24,000  Level Seattle Center
Thu 08:38:51 PM 43.5694 -120.1156 312° West 240 276 24,000  Level Seattle Center
Thu 08:39:52 PM 43.6147 -120.1847 312° West 241 277 24,000  Level Seattle Center
Thu 08:40:53 PM 43.6669 -120.2678 311° West 239 275 24,000  Level Seattle Center
Thu 08:41:54 PM 43.7103 -120.3367 311° West 237 273 24,000  Level Seattle Center
Thu 08:42:55 PM 43.7533 -120.4047 311° West 236 272 24,000  Level Seattle Center
Thu 08:43:56 PM 43.7975 -120.4739 312° West 238 274 24,000  Level Seattle Center
Thu 08:44:57 PM 43.8414 -120.5422 312° West 237 273 24,000  Level Seattle Center
Thu 08:45:58 PM 43.8856 -120.6136 311° West 241 277 24,000  Level Seattle Center
Thu 08:46:59 PM 43.9306 -120.6839 312° West 243 280 24,000  Level Seattle Center
Thu 08:48:00 PM 43.9744 -120.7539 311° West 240 276 24,000  Level Seattle Center
Thu 08:49:01 PM 44.0186 -120.8247 311° West 242 278 24,000  Level Seattle Center
Thu 08:50:02 PM 44.0628 -120.8964 311° West 243 280 24,000  Level Seattle Center
Thu 08:51:03 PM 44.1072 -120.9675 311° West 243 280 24,000  Level Seattle Center
Thu 08:52:04 PM 44.1508 -121.0389 310° West 241 277 24,000  Level Seattle Center
Thu 08:53:05 PM 44.1956 -121.1122 310° West 246 283 24,000  Level Seattle Center
Thu 08:54:06 PM 44.2442 -121.1900 311° West 253 291 24,000  Level Seattle Center
Thu 08:55:07 PM 44.2894 -121.2619 311° West 243 280 24,000  Level Seattle Center
Thu 08:56:07 PM 44.3342 -121.3350 311° West 246 283 24,000  Level Seattle Center
Thu 08:57:08 PM 44.3772 -121.4050 311° West 240 276 24,000  Level Seattle Center
Thu 08:58:09 PM 44.4200 -121.4747 311° West 238 274 24,000  Level Seattle Center
Thu 08:59:10 PM 44.4633 -121.5456 311° West 240 276 24,000 -541 Level Seattle Center
Thu 09:00:11 PM 44.5083 -121.6194 311° West 247 284 22,900 -1,279 Descending Seattle Center
Thu 09:01:12 PM 44.5583 -121.7019 310° West 274 315 21,400 -1,475 Descending Seattle Center
Thu 09:02:13 PM 44.6081 -121.7819 311° West 272 313 19,900 -1,475 Descending Seattle Center
Thu 09:03:14 PM 44.6539 -121.8619 309° West 265 305 18,400 -1,525 Descending Seattle Center
Thu 09:04:15 PM 44.7131 -121.9600 310° West 272 313 16,800 -1,563 Descending Seattle Center
Thu 09:04:50 PM 44.7414 -122.0072 310° West 277 319 15,900 -1,475 Descending Seattle Center
Thu 09:05:16 PM 44.7642 -122.0442 311° West 280 322 15,300 -1,482 Descending Seattle Center
Thu 09:06:15 PM 44.8122 -122.1272 309° West 270 311 13,800 -1,500 Descending Seattle Center
Thu 09:07:16 PM 44.8589 -122.2058 310° West 265 305 12,300 -1,448 Descending Seattle Center
Thu 09:08:11 PM 44.9022 -122.2794 310° West 261 300 11,000 -1,452 Descending Seattle Center
Thu 09:09:20 PM 44.9586 -122.3603 315° West 260 299 9,300 -1,426 Descending Seattle Center
Thu 09:10:13 PM 45.0039 -122.4242 315° West 258 297 8,100 -796 Descending Seattle Center
Thu 09:11:13 PM 45.0475 -122.4892 314° West 223 257 7,800 -744 Descending Seattle Center
Thu 09:12:14 PM 45.0931 -122.5531 315° West 229 264 6,600 -1,108 Descending Seattle Center
Thu 09:13:23 PM 45.1464 -122.6264 316° Northwest 227 261 5,400 -1,043 Descending Seattle Center

Login

Don't have an account? Register now (free) for customized features, flight alerts, and more!